createdAt,value
2023-06-07T04:04:13.496Z,100.00
2023-06-07T04:07:17.370Z,100.00
2023-06-07T04:10:20.512Z,100.00
2023-06-07T04:13:22.937Z,100.00
2023-06-07T04:16:25.280Z,100.00
2023-06-07T04:19:28.411Z,100.00
2023-06-07T04:22:31.612Z,100.00
2023-06-07T04:25:34.972Z,100.00
2023-06-07T04:28:41.803Z,100.00
2023-06-07T04:31:45.735Z,100.00
2023-06-07T04:34:48.826Z,100.00
2023-06-07T04:37:52.165Z,100.00
2023-06-07T04:40:54.942Z,100.00
2023-06-07T04:43:58.392Z,100.00
2023-06-07T04:47:08.037Z,100.00
2023-06-07T04:50:11.995Z,100.00
2023-06-07T04:53:19.048Z,100.00
2023-06-07T04:56:22.747Z,100.00
2023-06-07T04:59:25.921Z,100.00
2023-06-07T05:02:28.501Z,100.00
2023-06-07T05:05:31.081Z,100.00
2023-06-07T05:08:33.797Z,100.00
2023-06-07T05:11:36.306Z,100.00
2023-06-07T05:14:39.474Z,100.00
2023-06-07T05:17:41.913Z,100.00
2023-06-07T05:20:47.081Z,100.00
2023-06-07T05:23:49.479Z,99.18
2023-06-07T05:26:52.530Z,100.00
2023-06-07T05:29:54.773Z,100.00
2023-06-07T05:32:58.382Z,100.00
2023-06-07T05:36:01.768Z,100.00
2023-06-07T05:39:05.006Z,100.00
2023-06-07T05:42:07.929Z,100.00
2023-06-07T05:45:10.655Z,100.00
2023-06-07T05:48:13.058Z,100.00
2023-06-07T05:51:15.611Z,100.00
2023-06-07T05:54:18.853Z,100.00
2023-06-07T05:57:22.248Z,100.00
2023-06-07T06:00:25.153Z,100.00
2023-06-07T06:03:27.957Z,98.80
2023-06-07T06:06:30.206Z,100.00
2023-06-07T06:09:32.693Z,100.00
2023-06-07T06:12:35.093Z,100.00
2023-06-07T06:15:37.639Z,100.00
2023-06-07T06:18:41.517Z,100.00
2023-06-07T06:21:44.500Z,100.00
2023-06-07T06:24:46.800Z,100.00
2023-06-07T06:27:49.269Z,100.00
2023-06-07T06:30:51.500Z,100.00
2023-06-07T06:33:54.431Z,100.00
2023-06-07T06:36:58.282Z,100.00
2023-06-07T06:40:00.896Z,100.00
2023-06-07T06:43:03.048Z,100.00
2023-06-07T06:46:06.737Z,100.00
2023-06-07T06:49:12.612Z,100.00
2023-06-07T06:52:16.698Z,99.87
2023-06-07T06:55:19.021Z,95.03
2023-06-07T06:58:21.594Z,99.14
2023-06-07T07:01:24.043Z,99.10
2023-06-07T07:04:26.869Z,98.63
2023-06-07T07:07:29.150Z,97.17
2023-06-07T07:10:33.455Z,93.16
2023-06-07T07:13:35.971Z,94.84
2023-06-07T07:16:41.651Z,90.19
2023-06-07T07:19:44.061Z,94.58
2023-06-07T07:22:47.209Z,95.57
2023-06-07T07:25:49.472Z,92.83
2023-06-07T07:28:53.883Z,90.83
2023-06-07T07:31:56.656Z,85.38
2023-06-07T07:34:59.868Z,91.61
2023-06-07T07:38:03.483Z,93.00
2023-06-07T07:41:06.690Z,86.36
2023-06-07T07:44:08.911Z,85.66
2023-06-07T07:47:13.036Z,92.59
2023-06-07T07:50:16.786Z,90.34
2023-06-07T07:53:19.409Z,88.43
2023-06-07T07:56:24.527Z,88.40
2023-06-07T07:59:28.165Z,90.83
2023-06-07T08:02:31.016Z,90.20
2023-06-07T08:05:33.644Z,92.20
2023-06-07T08:08:35.885Z,86.80
2023-06-07T08:11:38.908Z,87.99
2023-06-07T08:14:41.232Z,83.80
2023-06-07T08:17:43.750Z,88.88
2023-06-07T08:20:46.021Z,91.56
2023-06-07T08:23:48.753Z,85.97
2023-06-07T08:26:51.107Z,86.60
2023-06-07T08:29:53.901Z,87.62
2023-06-07T08:32:56.486Z,88.98
2023-06-07T08:35:58.996Z,89.10
2023-06-07T08:39:02.564Z,88.70
2023-06-07T08:42:06.147Z,86.39
2023-06-07T08:45:08.582Z,85.47
2023-06-07T08:48:13.477Z,88.29
2023-06-07T08:51:17.893Z,83.38
2023-06-07T08:54:27.348Z,84.94
2023-06-07T08:57:32.019Z,83.93
2023-06-07T09:00:36.252Z,81.83
2023-06-07T09:03:38.452Z,86.21
2023-06-07T09:06:41.474Z,84.07
2023-06-07T09:09:46.968Z,79.98
2023-06-07T09:12:49.651Z,84.00
2023-06-07T09:15:53.731Z,86.70
2023-06-07T09:18:56.518Z,86.00
2023-06-07T09:21:58.698Z,83.28
2023-06-07T09:25:08.419Z,84.73
2023-06-07T09:28:12.435Z,89.43
2023-06-07T09:31:33.337Z,83.69
2023-06-07T09:34:35.771Z,85.99
2023-06-07T09:37:46.917Z,86.03
2023-06-07T09:40:52.474Z,85.42
2023-06-07T09:43:55.528Z,83.93
2023-06-07T09:47:03.088Z,81.15
2023-06-07T09:50:08.448Z,86.53
2023-06-07T09:53:10.605Z,83.64
2023-06-07T09:56:17.725Z,81.70
2023-06-07T09:59:20.031Z,87.25
2023-06-07T10:02:27.788Z,81.66
2023-06-07T10:05:30.233Z,84.23
2023-06-07T10:08:32.753Z,84.57
2023-06-07T10:11:37.549Z,86.25
2023-06-07T10:14:41.829Z,84.68
2023-06-07T10:17:56.825Z,81.99
2023-06-07T10:21:03.716Z,81.95
2023-06-07T10:24:10.930Z,81.18
2023-06-07T10:27:18.240Z,83.64
2023-06-07T10:30:25.479Z,81.41
2023-06-07T10:33:28.260Z,79.86
2023-06-07T10:36:31.020Z,82.02
2023-06-07T10:39:33.223Z,79.30
2023-06-07T10:42:36.416Z,81.35
2023-06-07T10:45:38.681Z,85.84
2023-06-07T10:48:44.813Z,79.07
2023-06-07T10:51:54.803Z,79.91
2023-06-07T10:54:57.668Z,77.26
2023-06-07T10:58:01.352Z,79.67
2023-06-07T11:01:24.990Z,78.55
2023-06-07T11:04:39.605Z,79.70
2023-06-07T11:07:48.880Z,77.13
2023-06-07T11:10:51.572Z,79.61
2023-06-07T11:13:54.354Z,80.77
2023-06-07T11:16:57.204Z,78.84
2023-06-07T11:20:00.872Z,79.64
2023-06-07T11:23:26.182Z,74.20
2023-06-07T11:26:28.960Z,75.25
2023-06-07T11:29:31.332Z,73.81
2023-06-07T11:32:39.769Z,73.48
2023-06-07T11:35:43.422Z,72.90
2023-06-07T11:38:50.500Z,74.03
2023-06-07T11:41:52.689Z,74.64
2023-06-07T11:44:55.591Z,71.35
2023-06-07T11:48:01.824Z,73.38
2023-06-07T11:51:04.502Z,74.13
2023-06-07T11:54:07.466Z,77.03
2023-06-07T11:57:10.995Z,74.27
2023-06-07T12:00:18.783Z,77.48
2023-06-07T12:03:23.140Z,77.53
2023-06-07T12:06:27.282Z,74.12
2023-06-07T12:09:29.553Z,76.05
2023-06-07T12:12:32.140Z,78.94
2023-06-07T12:15:35.794Z,73.74
2023-06-07T12:18:39.334Z,74.14
2023-06-07T12:21:41.564Z,72.59
2023-06-07T12:24:43.984Z,73.30
2023-06-07T12:27:50.044Z,73.85
2023-06-07T12:30:53.334Z,70.46
2023-06-07T12:34:03.615Z,69.87
2023-06-07T12:37:06.449Z,70.40
2023-06-07T12:40:09.350Z,71.73
2023-06-07T12:43:11.906Z,69.94
2023-06-07T12:46:14.350Z,71.46
2023-06-07T12:49:16.816Z,70.36
2023-06-07T12:52:19.277Z,71.74
2023-06-07T12:55:21.979Z,67.36
2023-06-07T12:58:24.171Z,70.13
2023-06-07T13:01:26.774Z,70.69
2023-06-07T13:04:31.013Z,67.92
2023-06-07T13:07:34.908Z,68.07
2023-06-07T13:10:37.732Z,67.95
2023-06-07T13:13:40.231Z,69.16
2023-06-07T13:16:44.452Z,73.02
2023-06-07T13:19:47.514Z,71.79
2023-06-07T13:22:49.935Z,69.98
2023-06-07T13:25:52.364Z,69.18
2023-06-07T13:28:54.588Z,67.63
2023-06-07T13:31:57.300Z,68.55
2023-06-07T13:34:59.496Z,69.13
2023-06-07T13:38:01.935Z,69.50
2023-06-07T13:41:04.572Z,65.40
2023-06-07T13:44:17.283Z,66.47
2023-06-07T13:47:22.062Z,68.51
2023-06-07T13:50:24.617Z,65.63
2023-06-07T13:53:27.311Z,67.01
2023-06-07T13:56:30.831Z,68.87
2023-06-07T13:59:33.315Z,67.12
2023-06-07T14:02:36.122Z,70.05
2023-06-07T14:05:38.898Z,69.12
2023-06-07T14:08:41.086Z,71.54
2023-06-07T14:11:43.937Z,70.51
2023-06-07T14:14:46.227Z,70.16
2023-06-07T14:17:48.750Z,69.51
2023-06-07T14:20:51.073Z,69.76
2023-06-07T14:23:53.680Z,70.81
2023-06-07T14:26:55.862Z,67.76
2023-06-07T14:29:58.283Z,70.20
2023-06-07T14:33:00.548Z,70.32
2023-06-07T14:36:03.598Z,69.55
2023-06-07T14:39:05.777Z,71.74
2023-06-07T14:42:08.280Z,73.50
2023-06-07T14:45:11.039Z,71.19
2023-06-07T14:48:13.513Z,75.13
2023-06-07T14:51:16.596Z,86.37
2023-06-07T14:54:19.025Z,86.87
2023-06-07T14:57:21.431Z,88.12
2023-06-07T15:00:23.924Z,92.07
2023-06-07T15:03:26.181Z,93.07
2023-06-07T15:06:28.713Z,93.11
2023-06-07T15:09:33.978Z,96.50
2023-06-07T15:12:37.780Z,96.75
2023-06-07T15:15:39.990Z,89.37
2023-06-07T15:18:42.556Z,86.83
2023-06-07T15:21:44.800Z,87.81
2023-06-07T15:24:47.231Z,88.96
2023-06-07T15:27:49.367Z,88.16
2023-06-07T15:30:51.779Z,85.44
2023-06-07T15:33:55.804Z,81.50
2023-06-07T15:36:58.489Z,80.60
2023-06-07T15:40:00.739Z,77.91
2023-06-07T15:43:03.193Z,85.42
2023-06-07T15:46:05.804Z,84.84
2023-06-07T15:49:08.215Z,85.23
2023-06-07T15:52:10.588Z,82.58
2023-06-07T15:55:13.116Z,84.50
2023-06-07T15:58:18.557Z,82.24
2023-06-07T16:01:20.998Z,83.83
2023-06-07T16:04:23.510Z,83.66
2023-06-07T16:07:26.685Z,83.61
2023-06-07T16:10:29.133Z,84.44
2023-06-07T16:13:31.253Z,80.50
2023-06-07T16:16:34.689Z,81.94
2023-06-07T16:19:37.934Z,84.30
2023-06-07T16:22:40.377Z,81.65
2023-06-07T16:25:42.572Z,78.90
